Hughes, AK

5:57 PM AKST on March 06, 2015 (GMT -0900)
Indian Mountain | Change Station
CLOSE
Current Station
Airport
Location: Indian Mountain,
Elevation: 1276 ft
Nearby Weather Stations
Active Advisory: Winter Weather Advisory

Elev 1276 ft 65.99 °N, 153.70 °W | Updated 1 hour ago

Light Snow
Light Snow
23 °F
Feels Like 17 °F
N
5
Wind Variable Wind from SSE

Today
High -- | Low -- °F
--% Chance of Precip.
Yesterday
High -- | Low -- °F
Precip. -- in
8:08 AM 6:45 PM
Full, 98% visible
Pressure 29.81 in
Visibility 10.0 miles
Clouds Overcast 1500 ft
Windchill 17 °F
Dew Point 21 °F
Humidity 92%
Rainfall 0.09 in
Snow Depth Not available.
UV 0 out of 12
Pollen Not available.
Air Quality Not available.
Flu Activity Not available.
METAR PAIM 070155Z AUTO 16004KT 10SM -SN OVC015 M05/M06 A2973 RMK AO2 SHSNB0024E0124 SLP095 P0000 T10501061

More Conditions Fewer Conditions

Pressure 29.81 in
Visibility 10.0 miles
Clouds Overcast 1500 ft
Windchill 17 °F
Dew Point 21 °F
Humidity 92%
Rainfall 0.09 in
Snow Depth Not available.
UV 0 out of 12
Pollen Not available.
Air Quality Not available.
Flu Activity Not available.
METAR PAIM 070155Z AUTO 16004KT 10SM -SN OVC015 M05/M06 A2973 RMK AO2 SHSNB0024E0124 SLP095 P0000 T10501061

More Conditions Fewer Conditions

10-Day Weather Forecast

Almanac

Astronomy

Mar. 06, 2015 Rise Set
Actual Time
Civil Twilight
Nautical Twilight
Astronomical Twilight
Moon
Length of Visible Light
Length of Day
Tomorrow will be .
, % of the Moon is Illuminated

Today's Extremes

State Highs State Lows

Community

WunderPhotos

Upload Photos

1,803,501 photos uploaded!

WunderBlogs® & News

Nearby

Air Quality

  Air Quality AQ Index Pollutant
Not available.

Snow Depth

Station Depth Elevation

Earthquake Activity

City Distance Mag. Time & Date
Minimum magnitude displayed is 2.5.

Coastal Water Temperatures

Place Temperature

Nearby Weather Stations

Winter Weather Advisory
Statement as of 5:39 PM AKST on March 06, 2015

... Winter Weather Advisory remains in effect until 6 PM akst
Saturday...

A Winter Weather Advisory for snow and blowing snow remains in
effect until 6 PM akst Saturday.

* Snow... 6 to 8 inches.

* Blowing snow... reducing visibility to one half mile or less at
times on summits.

* Timing... snow and wind will increase this evening and continue
through Saturday evening.

* Impacts... visibility may be greatly reduced. Travel and
outdoor activities will be difficult.

Precautionary/preparedness actions...

A Winter Weather Advisory means that one or more winter weather
hazards are expected to cause travel difficulties.